METAR Data
IDs: Format: Raw Decoded Include TAF

Data at: 1942 UTC 26 Sep 2021

METAR for:KFLO (Florence Rgnl, SC, US)
Text:KFLO 261853Z 33008KT 10SM FEW055 27/12 A3008 RMK AO2 SLP184 T02670117
Temperature: 26.7°C ( 80°F)
Dewpoint: 11.7°C ( 53°F) [RH = 39%]
Pressure (altimeter):30.08 inches Hg (1018.7 mb) [Sea level pressure: 1018.4 mb]
Winds:from the NNW (330 degrees) at 9 MPH (8 knots; 4.1 m/s)
Visibility:10 or more sm (16+ km)
Ceiling:at least 12,000 feet AGL
Clouds: few clouds at 5500 feet AGL

TAF for:KFLO (Florence Rgnl, SC, US) issued at 1720 UTC 26 Sep 2021
Text:KFLO 261720Z 2618/2718 34006KT P6SM SKC
Forecast period:1800 UTC 26 September 2021 to 0100 UTC 27 September 2021
Forecast type:FROM: standard forecast or significant change
Winds:from the NNW (340 degrees) at 7 MPH (6 knots; 3.1 m/s)
Visibility:6 or more sm (10+ km)
Ceiling:at least 12,000 feet AGL
Clouds:clear skies
Text:FM270100 00000KT P6SM SKC
Forecast period:0100 to 1700 UTC 27 September 2021
Forecast type:FROM: standard forecast or significant change
Winds:calm
Visibility:6 or more sm (10+ km)
Ceiling:at least 12,000 feet AGL
Clouds:clear skies
Text:FM271700 22004KT P6SM SKC
Forecast period:1700 to 1800 UTC 27 September 2021
Forecast type:FROM: standard forecast or significant change
Winds:from the SW (220 degrees) at 5 MPH (4 knots; 2.1 m/s)
Visibility:6 or more sm (10+ km)
Ceiling:at least 12,000 feet AGL
Clouds:clear skies